sensor_id;sensor_type;location;lat;lon;timestamp;P1;durP1;ratioP1;P2;durP2;ratioP2
12290;SDS011;6208;48.956;9.076;2023-02-13T00:00:57;16.80;;;11.47;;
12290;SDS011;6208;48.956;9.076;2023-02-13T00:03:41;12.90;;;10.33;;
12290;SDS011;6208;48.956;9.076;2023-02-13T00:06:25;11.90;;;10.70;;
12290;SDS011;6208;48.956;9.076;2023-02-13T00:09:09;14.53;;;10.27;;
12290;SDS011;6208;48.956;9.076;2023-02-13T00:11:53;11.33;;;9.83;;
12290;SDS011;6208;48.956;9.076;2023-02-13T00:14:38;13.40;;;10.23;;
12290;SDS011;6208;48.956;9.076;2023-02-13T00:17:22;14.27;;;10.13;;
12290;SDS011;6208;48.956;9.076;2023-02-13T00:20:07;11.97;;;9.73;;
12290;SDS011;6208;48.956;9.076;2023-02-13T00:22:52;12.77;;;9.63;;
12290;SDS011;6208;48.956;9.076;2023-02-13T00:25:37;13.20;;;10.50;;
12290;SDS011;6208;48.956;9.076;2023-02-13T00:28:21;11.27;;;10.07;;
12290;SDS011;6208;48.956;9.076;2023-02-13T00:31:07;13.53;;;10.27;;
12290;SDS011;6208;48.956;9.076;2023-02-13T00:33:53;13.63;;;10.77;;
12290;SDS011;6208;48.956;9.076;2023-02-13T00:36:37;12.63;;;10.30;;
12290;SDS011;6208;48.956;9.076;2023-02-13T00:39:21;13.70;;;10.13;;
12290;SDS011;6208;48.956;9.076;2023-02-13T00:42:05;13.23;;;10.10;;
12290;SDS011;6208;48.956;9.076;2023-02-13T00:44:49;13.57;;;10.50;;
12290;SDS011;6208;48.956;9.076;2023-02-13T00:47:33;14.03;;;10.40;;
12290;SDS011;6208;48.956;9.076;2023-02-13T00:50:17;11.37;;;9.23;;
12290;SDS011;6208;48.956;9.076;2023-02-13T00:53:01;12.83;;;9.87;;
12290;SDS011;6208;48.956;9.076;2023-02-13T00:55:45;12.53;;;10.03;;
12290;SDS011;6208;48.956;9.076;2023-02-13T00:58:30;13.50;;;10.27;;
12290;SDS011;6208;48.956;9.076;2023-02-13T01:01:15;13.50;;;10.33;;
12290;SDS011;6208;48.956;9.076;2023-02-13T01:03:59;13.10;;;9.90;;
12290;SDS011;6208;48.956;9.076;2023-02-13T01:06:43;15.13;;;11.17;;
12290;SDS011;6208;48.956;9.076;2023-02-13T01:09:27;13.93;;;10.27;;
12290;SDS011;6208;48.956;9.076;2023-02-13T01:12:11;14.20;;;10.70;;
12290;SDS011;6208;48.956;9.076;2023-02-13T01:14:55;13.30;;;10.70;;
12290;SDS011;6208;48.956;9.076;2023-02-13T01:17:39;14.77;;;11.13;;
12290;SDS011;6208;48.956;9.076;2023-02-13T01:20:23;14.23;;;10.87;;
12290;SDS011;6208;48.956;9.076;2023-02-13T01:23:08;14.53;;;11.37;;
12290;SDS011;6208;48.956;9.076;2023-02-13T01:25:53;14.53;;;11.07;;
12290;SDS011;6208;48.956;9.076;2023-02-13T01:28:37;13.60;;;10.27;;
12290;SDS011;6208;48.956;9.076;2023-02-13T01:31:21;13.53;;;10.10;;
12290;SDS011;6208;48.956;9.076;2023-02-13T01:34:05;13.83;;;10.53;;
12290;SDS011;6208;48.956;9.076;2023-02-13T01:36:49;15.57;;;10.47;;
12290;SDS011;6208;48.956;9.076;2023-02-13T01:39:33;13.33;;;11.17;;
12290;SDS011;6208;48.956;9.076;2023-02-13T01:42:21;18.20;;;12.00;;
12290;SDS011;6208;48.956;9.076;2023-02-13T01:48:26;29.93;;;14.00;;
12290;SDS011;6208;48.956;9.076;2023-02-13T01:51:12;25.93;;;13.63;;
12290;SDS011;6208;48.956;9.076;2023-02-13T01:54:04;26.00;;;15.10;;
12290;SDS011;6208;48.956;9.076;2023-02-13T01:56:52;29.63;;;15.53;;
12290;SDS011;6208;48.956;9.076;2023-02-13T01:59:58;26.70;;;14.17;;
12290;SDS011;6208;48.956;9.076;2023-02-13T02:02:50;27.17;;;12.07;;
12290;SDS011;6208;48.956;9.076;2023-02-13T02:05:40;40.53;;;12.93;;
12290;SDS011;6208;48.956;9.076;2023-02-13T02:08:25;40.77;;;13.53;;
12290;SDS011;6208;48.956;9.076;2023-02-13T02:11:14;46.60;;;13.57;;
12290;SDS011;6208;48.956;9.076;2023-02-13T02:14:05;31.30;;;12.97;;
12290;SDS011;6208;48.956;9.076;2023-02-13T02:16:49;21.87;;;11.67;;
12290;SDS011;6208;48.956;9.076;2023-02-13T02:19:35;22.67;;;11.90;;
12290;SDS011;6208;48.956;9.076;2023-02-13T02:26:00;42.40;;;14.03;;
12290;SDS011;6208;48.956;9.076;2023-02-13T02:38:11;24.30;;;12.77;;
12290;SDS011;6208;48.956;9.076;2023-02-13T02:41:19;28.90;;;12.63;;
12290;SDS011;6208;48.956;9.076;2023-02-13T02:44:30;77.27;;;14.57;;
12290;SDS011;6208;48.956;9.076;2023-02-13T02:53:41;10.73;;;9.63;;
12290;SDS011;6208;48.956;9.076;2023-02-13T02:56:40;10.67;;;9.57;;
12290;SDS011;6208;48.956;9.076;2023-02-13T02:59:27;12.33;;;9.63;;
12290;SDS011;6208;48.956;9.076;2023-02-13T03:02:31;22.37;;;11.03;;
12290;SDS011;6208;48.956;9.076;2023-02-13T03:05:35;13.03;;;10.13;;
12290;SDS011;6208;48.956;9.076;2023-02-13T03:08:44;25.80;;;11.10;;
12290;SDS011;6208;48.956;9.076;2023-02-13T03:11:59;10.70;;;9.60;;
12290;SDS011;6208;48.956;9.076;2023-02-13T03:15:03;12.03;;;10.83;;
12290;SDS011;6208;48.956;9.076;2023-02-13T03:17:48;10.80;;;9.70;;
12290;SDS011;6208;48.956;9.076;2023-02-13T03:21:11;10.03;;;9.03;;
12290;SDS011;6208;48.956;9.076;2023-02-13T03:30:35;11.67;;;10.47;;
12290;SDS011;6208;48.956;9.076;2023-02-13T03:36:43;25.73;;;11.27;;
12290;SDS011;6208;48.956;9.076;2023-02-13T03:40:12;27.07;;;10.00;;
12290;SDS011;6208;48.956;9.076;2023-02-13T03:43:07;13.07;;;9.17;;
12290;SDS011;6208;48.956;9.076;2023-02-13T03:45:55;24.63;;;8.90;;
12290;SDS011;6208;48.956;9.076;2023-02-13T03:48:40;11.00;;;8.33;;
12290;SDS011;6208;48.956;9.076;2023-02-13T03:51:48;50.20;;;10.30;;
12290;SDS011;6208;48.956;9.076;2023-02-13T03:57:44;12.60;;;8.70;;
12290;SDS011;6208;48.956;9.076;2023-02-13T04:00:51;34.30;;;9.87;;
12290;SDS011;6208;48.956;9.076;2023-02-13T04:03:55;21.40;;;10.77;;
12290;SDS011;6208;48.956;9.076;2023-02-13T04:07:10;46.70;;;11.57;;
12290;SDS011;6208;48.956;9.076;2023-02-13T04:10:12;26.67;;;12.87;;
12290;SDS011;6208;48.956;9.076;2023-02-13T04:13:13;28.90;;;11.87;;
12290;SDS011;6208;48.956;9.076;2023-02-13T04:16:07;35.53;;;9.73;;
12290;SDS011;6208;48.956;9.076;2023-02-13T04:18:54;29.70;;;9.50;;
12290;SDS011;6208;48.956;9.076;2023-02-13T04:21:40;28.27;;;10.17;;
12290;SDS011;6208;48.956;9.076;2023-02-13T04:24:25;26.97;;;10.33;;
12290;SDS011;6208;48.956;9.076;2023-02-13T04:27:12;16.27;;;9.60;;
12290;SDS011;6208;48.956;9.076;2023-02-13T04:29:57;21.40;;;9.70;;
12290;SDS011;6208;48.956;9.076;2023-02-13T04:32:42;23.20;;;9.37;;
12290;SDS011;6208;48.956;9.076;2023-02-13T04:35:26;20.17;;;10.07;;
12290;SDS011;6208;48.956;9.076;2023-02-13T04:38:10;15.93;;;10.27;;
12290;SDS011;6208;48.956;9.076;2023-02-13T04:40:54;18.47;;;10.67;;
12290;SDS011;6208;48.956;9.076;2023-02-13T04:43:38;25.50;;;10.97;;
12290;SDS011;6208;48.956;9.076;2023-02-13T04:46:22;25.43;;;11.00;;
12290;SDS011;6208;48.956;9.076;2023-02-13T04:49:07;32.13;;;10.40;;
12290;SDS011;6208;48.956;9.076;2023-02-13T04:51:52;26.57;;;9.97;;
12290;SDS011;6208;48.956;9.076;2023-02-13T04:54:36;20.70;;;10.70;;
12290;SDS011;6208;48.956;9.076;2023-02-13T04:57:23;16.73;;;10.73;;
12290;SDS011;6208;48.956;9.076;2023-02-13T05:00:08;19.53;;;10.90;;
12290;SDS011;6208;48.956;9.076;2023-02-13T05:02:53;18.77;;;10.53;;
12290;SDS011;6208;48.956;9.076;2023-02-13T05:05:42;27.67;;;10.33;;
12290;SDS011;6208;48.956;9.076;2023-02-13T05:08:27;16.67;;;9.80;;
12290;SDS011;6208;48.956;9.076;2023-02-13T05:11:11;13.70;;;10.43;;
12290;SDS011;6208;48.956;9.076;2023-02-13T05:13:55;18.47;;;10.40;;
12290;SDS011;6208;48.956;9.076;2023-02-13T05:16:39;37.47;;;10.57;;
12290;SDS011;6208;48.956;9.076;2023-02-13T05:19:23;13.93;;;10.43;;
12290;SDS011;6208;48.956;9.076;2023-02-13T05:22:07;36.40;;;11.53;;
12290;SDS011;6208;48.956;9.076;2023-02-13T05:25:12;38.53;;;10.70;;
12290;SDS011;6208;48.956;9.076;2023-02-13T05:27:56;30.00;;;10.60;;
12290;SDS011;6208;48.956;9.076;2023-02-13T05:30:41;18.33;;;9.30;;
12290;SDS011;6208;48.956;9.076;2023-02-13T05:33:25;19.57;;;10.33;;
12290;SDS011;6208;48.956;9.076;2023-02-13T05:36:10;23.10;;;10.20;;
12290;SDS011;6208;48.956;9.076;2023-02-13T05:38:54;30.30;;;10.20;;
12290;SDS011;6208;48.956;9.076;2023-02-13T05:41:38;19.83;;;9.83;;
12290;SDS011;6208;48.956;9.076;2023-02-13T05:44:22;26.60;;;10.13;;
12290;SDS011;6208;48.956;9.076;2023-02-13T05:47:06;36.93;;;10.73;;
12290;SDS011;6208;48.956;9.076;2023-02-13T05:49:50;39.13;;;10.33;;
12290;SDS011;6208;48.956;9.076;2023-02-13T05:52:34;56.80;;;12.13;;
12290;SDS011;6208;48.956;9.076;2023-02-13T05:55:18;28.53;;;10.33;;
12290;SDS011;6208;48.956;9.076;2023-02-13T05:58:02;86.47;;;12.17;;
12290;SDS011;6208;48.956;9.076;2023-02-13T06:00:46;50.57;;;10.90;;
12290;SDS011;6208;48.956;9.076;2023-02-13T06:03:31;67.87;;;11.43;;
12290;SDS011;6208;48.956;9.076;2023-02-13T06:06:16;77.77;;;11.93;;
12290;SDS011;6208;48.956;9.076;2023-02-13T06:09:00;73.93;;;11.03;;
12290;SDS011;6208;48.956;9.076;2023-02-13T06:11:44;46.33;;;10.50;;
12290;SDS011;6208;48.956;9.076;2023-02-13T06:14:28;66.63;;;10.17;;
12290;SDS011;6208;48.956;9.076;2023-02-13T06:17:12;106.93;;;12.43;;
12290;SDS011;6208;48.956;9.076;2023-02-13T06:19:56;105.33;;;12.27;;
12290;SDS011;6208;48.956;9.076;2023-02-13T06:22:41;174.53;;;13.63;;
12290;SDS011;6208;48.956;9.076;2023-02-13T06:25:25;101.27;;;12.20;;
12290;SDS011;6208;48.956;9.076;2023-02-13T06:28:09;60.03;;;11.30;;
12290;SDS011;6208;48.956;9.076;2023-02-13T06:30:53;113.90;;;13.47;;
12290;SDS011;6208;48.956;9.076;2023-02-13T06:33:37;108.27;;;12.53;;
12290;SDS011;6208;48.956;9.076;2023-02-13T06:36:21;104.43;;;13.63;;
12290;SDS011;6208;48.956;9.076;2023-02-13T06:39:05;87.43;;;12.70;;
12290;SDS011;6208;48.956;9.076;2023-02-13T06:41:49;81.67;;;12.87;;
12290;SDS011;6208;48.956;9.076;2023-02-13T06:44:33;89.20;;;14.50;;
12290;SDS011;6208;48.956;9.076;2023-02-13T06:47:17;139.10;;;15.73;;
12290;SDS011;6208;48.956;9.076;2023-02-13T06:50:01;92.73;;;14.43;;
12290;SDS011;6208;48.956;9.076;2023-02-13T06:52:46;69.57;;;13.10;;
12290;SDS011;6208;48.956;9.076;2023-02-13T06:55:32;91.50;;;13.47;;
12290;SDS011;6208;48.956;9.076;2023-02-13T06:58:16;108.10;;;14.43;;
12290;SDS011;6208;48.956;9.076;2023-02-13T07:01:02;122.57;;;15.13;;
12290;SDS011;6208;48.956;9.076;2023-02-13T07:03:46;151.00;;;16.23;;
12290;SDS011;6208;48.956;9.076;2023-02-13T07:06:31;75.50;;;14.03;;
12290;SDS011;6208;48.956;9.076;2023-02-13T07:09:15;58.13;;;13.03;;
12290;SDS011;6208;48.956;9.076;2023-02-13T07:12:03;70.80;;;13.57;;
12290;SDS011;6208;48.956;9.076;2023-02-13T07:14:48;34.40;;;12.60;;
12290;SDS011;6208;48.956;9.076;2023-02-13T07:17:32;32.30;;;12.77;;
12290;SDS011;6208;48.956;9.076;2023-02-13T07:20:16;36.43;;;12.83;;
12290;SDS011;6208;48.956;9.076;2023-02-13T07:23:01;39.87;;;12.40;;
12290;SDS011;6208;48.956;9.076;2023-02-13T07:25:47;34.60;;;12.37;;
12290;SDS011;6208;48.956;9.076;2023-02-13T07:28:31;106.83;;;14.43;;
12290;SDS011;6208;48.956;9.076;2023-02-13T07:31:15;100.87;;;14.93;;
12290;SDS011;6208;48.956;9.076;2023-02-13T07:33:59;73.93;;;14.63;;
12290;SDS011;6208;48.956;9.076;2023-02-13T07:36:43;51.50;;;12.97;;
12290;SDS011;6208;48.956;9.076;2023-02-13T07:39:33;71.40;;;14.13;;
12290;SDS011;6208;48.956;9.076;2023-02-13T07:42:21;26.47;;;12.47;;
12290;SDS011;6208;48.956;9.076;2023-02-13T07:45:05;41.73;;;13.07;;
12290;SDS011;6208;48.956;9.076;2023-02-13T07:47:54;60.33;;;13.03;;
12290;SDS011;6208;48.956;9.076;2023-02-13T07:50:42;22.73;;;12.03;;
12290;SDS011;6208;48.956;9.076;2023-02-13T07:53:26;40.27;;;12.30;;
12290;SDS011;6208;48.956;9.076;2023-02-13T07:56:11;80.47;;;17.13;;
12290;SDS011;6208;48.956;9.076;2023-02-13T07:58:55;30.70;;;12.37;;
12290;SDS011;6208;48.956;9.076;2023-02-13T08:01:39;60.93;;;12.47;;
12290;SDS011;6208;48.956;9.076;2023-02-13T08:04:23;37.40;;;12.97;;
12290;SDS011;6208;48.956;9.076;2023-02-13T08:07:07;89.37;;;14.27;;
12290;SDS011;6208;48.956;9.076;2023-02-13T08:09:54;77.03;;;14.23;;
12290;SDS011;6208;48.956;9.076;2023-02-13T08:12:57;73.57;;;13.47;;
12290;SDS011;6208;48.956;9.076;2023-02-13T08:15:45;41.07;;;14.57;;
12290;SDS011;6208;48.956;9.076;2023-02-13T08:18:29;68.03;;;16.07;;
12290;SDS011;6208;48.956;9.076;2023-02-13T08:21:13;36.10;;;14.53;;
12290;SDS011;6208;48.956;9.076;2023-02-13T08:23:58;46.47;;;14.60;;
12290;SDS011;6208;48.956;9.076;2023-02-13T08:26:42;25.77;;;14.50;;
12290;SDS011;6208;48.956;9.076;2023-02-13T08:29:26;21.53;;;13.60;;
12290;SDS011;6208;48.956;9.076;2023-02-13T08:32:10;22.10;;;13.20;;
12290;SDS011;6208;48.956;9.076;2023-02-13T08:34:54;21.33;;;12.87;;
12290;SDS011;6208;48.956;9.076;2023-02-13T08:37:38;23.67;;;13.33;;
12290;SDS011;6208;48.956;9.076;2023-02-13T08:40:23;20.17;;;12.63;;
12290;SDS011;6208;48.956;9.076;2023-02-13T08:43:07;24.57;;;13.70;;
12290;SDS011;6208;48.956;9.076;2023-02-13T08:45:51;22.87;;;13.80;;
12290;SDS011;6208;48.956;9.076;2023-02-13T08:48:35;23.90;;;15.90;;
12290;SDS011;6208;48.956;9.076;2023-02-13T08:51:19;26.33;;;16.53;;
12290;SDS011;6208;48.956;9.076;2023-02-13T08:54:03;26.37;;;16.33;;
12290;SDS011;6208;48.956;9.076;2023-02-13T08:56:50;22.57;;;15.83;;
12290;SDS011;6208;48.956;9.076;2023-02-13T08:59:34;26.13;;;17.17;;
12290;SDS011;6208;48.956;9.076;2023-02-13T09:02:18;25.83;;;17.27;;
12290;SDS011;6208;48.956;9.076;2023-02-13T09:05:03;22.83;;;16.53;;
12290;SDS011;6208;48.956;9.076;2023-02-13T09:07:48;20.80;;;15.90;;
12290;SDS011;6208;48.956;9.076;2023-02-13T09:10:32;24.10;;;17.23;;
12290;SDS011;6208;48.956;9.076;2023-02-13T09:13:17;25.33;;;17.30;;
12290;SDS011;6208;48.956;9.076;2023-02-13T09:16:02;26.47;;;17.77;;
12290;SDS011;6208;48.956;9.076;2023-02-13T09:18:48;21.23;;;16.60;;
12290;SDS011;6208;48.956;9.076;2023-02-13T09:21:33;24.13;;;17.60;;
12290;SDS011;6208;48.956;9.076;2023-02-13T09:24:17;22.90;;;16.43;;
12290;SDS011;6208;48.956;9.076;2023-02-13T09:27:03;29.23;;;16.83;;
12290;SDS011;6208;48.956;9.076;2023-02-13T09:29:47;23.63;;;15.17;;
12290;SDS011;6208;48.956;9.076;2023-02-13T09:32:31;22.67;;;15.73;;
12290;SDS011;6208;48.956;9.076;2023-02-13T09:35:17;20.67;;;14.90;;
12290;SDS011;6208;48.956;9.076;2023-02-13T09:38:02;22.37;;;16.13;;
12290;SDS011;6208;48.956;9.076;2023-02-13T09:40:51;19.87;;;14.57;;
12290;SDS011;6208;48.956;9.076;2023-02-13T09:43:50;17.87;;;13.53;;
12290;SDS011;6208;48.956;9.076;2023-02-13T09:46:38;21.77;;;14.53;;
12290;SDS011;6208;48.956;9.076;2023-02-13T09:49:23;22.67;;;14.20;;
12290;SDS011;6208;48.956;9.076;2023-02-13T09:52:13;17.13;;;13.83;;
12290;SDS011;6208;48.956;9.076;2023-02-13T09:54:57;19.40;;;14.53;;
12290;SDS011;6208;48.956;9.076;2023-02-13T09:57:52;18.83;;;14.10;;
12290;SDS011;6208;48.956;9.076;2023-02-13T10:00:47;20.37;;;13.83;;
12290;SDS011;6208;48.956;9.076;2023-02-13T10:03:46;20.07;;;14.47;;
12290;SDS011;6208;48.956;9.076;2023-02-13T10:06:52;20.07;;;14.83;;
12290;SDS011;6208;48.956;9.076;2023-02-13T10:12:55;23.57;;;14.43;;
12290;SDS011;6208;48.956;9.076;2023-02-13T10:16:13;18.87;;;14.37;;
12290;SDS011;6208;48.956;9.076;2023-02-13T10:19:04;22.43;;;15.90;;
12290;SDS011;6208;48.956;9.076;2023-02-13T10:22:25;17.30;;;13.60;;
12290;SDS011;6208;48.956;9.076;2023-02-13T10:25:16;17.90;;;13.63;;
12290;SDS011;6208;48.956;9.076;2023-02-13T10:28:18;16.20;;;13.30;;
12290;SDS011;6208;48.956;9.076;2023-02-13T10:31:13;16.00;;;13.37;;
12290;SDS011;6208;48.956;9.076;2023-02-13T10:34:03;19.17;;;14.13;;
12290;SDS011;6208;48.956;9.076;2023-02-13T10:36:56;17.30;;;12.63;;
12290;SDS011;6208;48.956;9.076;2023-02-13T10:39:46;17.40;;;12.87;;
12290;SDS011;6208;48.956;9.076;2023-02-13T10:43:07;16.90;;;13.47;;
12290;SDS011;6208;48.956;9.076;2023-02-13T10:46:00;16.80;;;12.83;;
12290;SDS011;6208;48.956;9.076;2023-02-13T10:55:31;14.90;;;12.50;;
12290;SDS011;6208;48.956;9.076;2023-02-13T10:58:31;23.60;;;12.97;;
12290;SDS011;6208;48.956;9.076;2023-02-13T11:04:29;14.17;;;12.20;;
12290;SDS011;6208;48.956;9.076;2023-02-13T11:07:16;17.03;;;12.80;;
12290;SDS011;6208;48.956;9.076;2023-02-13T11:10:05;15.57;;;12.37;;
12290;SDS011;6208;48.956;9.076;2023-02-13T11:13:13;15.00;;;12.00;;
12290;SDS011;6208;48.956;9.076;2023-02-13T11:16:03;13.90;;;12.10;;
12290;SDS011;6208;48.956;9.076;2023-02-13T11:18:49;12.40;;;11.10;;
12290;SDS011;6208;48.956;9.076;2023-02-13T11:21:34;16.37;;;12.00;;
12290;SDS011;6208;48.956;9.076;2023-02-13T11:24:22;14.40;;;11.47;;
12290;SDS011;6208;48.956;9.076;2023-02-13T11:27:09;11.37;;;9.90;;
12290;SDS011;6208;48.956;9.076;2023-02-13T11:29:57;11.43;;;9.93;;
12290;SDS011;6208;48.956;9.076;2023-02-13T11:32:44;12.18;;;10.88;;
12290;SDS011;6208;48.956;9.076;2023-02-13T11:35:43;15.33;;;10.53;;
12290;SDS011;6208;48.956;9.076;2023-02-13T11:38:28;12.13;;;10.80;;
12290;SDS011;6208;48.956;9.076;2023-02-13T11:41:21;12.65;;;10.48;;
12290;SDS011;6208;48.956;9.076;2023-02-13T11:44:17;11.48;;;10.27;;
12290;SDS011;6208;48.956;9.076;2023-02-13T11:47:12;10.80;;;9.57;;
12290;SDS011;6208;48.956;9.076;2023-02-13T11:49:57;12.00;;;9.80;;
12290;SDS011;6208;48.956;9.076;2023-02-13T11:52:43;14.35;;;10.13;;
12290;SDS011;6208;48.956;9.076;2023-02-13T11:55:36;15.07;;;10.65;;
12290;SDS011;6208;48.956;9.076;2023-02-13T11:58:23;12.03;;;10.70;;
12290;SDS011;6208;48.956;9.076;2023-02-13T12:04:12;11.98;;;10.77;;
12290;SDS011;6208;48.956;9.076;2023-02-13T12:07:00;11.30;;;10.10;;
12290;SDS011;6208;48.956;9.076;2023-02-13T12:09:45;12.70;;;11.23;;
12290;SDS011;6208;48.956;9.076;2023-02-13T12:12:38;14.57;;;12.27;;
12290;SDS011;6208;48.956;9.076;2023-02-13T12:15:27;13.93;;;11.20;;
12290;SDS011;6208;48.956;9.076;2023-02-13T12:18:28;15.00;;;10.93;;
12290;SDS011;6208;48.956;9.076;2023-02-13T12:36:23;12.40;;;9.90;;
12290;SDS011;6208;48.956;9.076;2023-02-13T12:42:41;10.57;;;9.35;;
12290;SDS011;6208;48.956;9.076;2023-02-13T12:48:35;10.23;;;9.23;;
12290;SDS011;6208;48.956;9.076;2023-02-13T12:55:26;12.98;;;9.70;;
12290;SDS011;6208;48.956;9.076;2023-02-13T13:01:39;11.77;;;10.57;;
12290;SDS011;6208;48.956;9.076;2023-02-13T13:13:17;10.98;;;9.63;;
12290;SDS011;6208;48.956;9.076;2023-02-13T13:22:21;10.00;;;8.45;;
12290;SDS011;6208;48.956;9.076;2023-02-13T13:25:20;8.98;;;8.13;;
12290;SDS011;6208;48.956;9.076;2023-02-13T13:31:25;8.85;;;7.95;;
12290;SDS011;6208;48.956;9.076;2023-02-13T13:34:12;9.32;;;8.43;;
12290;SDS011;6208;48.956;9.076;2023-02-13T13:46:55;8.70;;;7.80;;
12290;SDS011;6208;48.956;9.076;2023-02-13T13:49:53;8.60;;;7.85;;
12290;SDS011;6208;48.956;9.076;2023-02-13T13:52:41;9.55;;;8.55;;
12290;SDS011;6208;48.956;9.076;2023-02-13T13:56:02;8.13;;;7.43;;
12290;SDS011;6208;48.956;9.076;2023-02-13T13:58:48;9.45;;;8.25;;
12290;SDS011;6208;48.956;9.076;2023-02-13T14:01:33;8.70;;;7.82;;
12290;SDS011;6208;48.956;9.076;2023-02-13T14:04:37;8.38;;;7.53;;
12290;SDS011;6208;48.956;9.076;2023-02-13T14:07:25;8.48;;;7.68;;
12290;SDS011;6208;48.956;9.076;2023-02-13T14:13:02;15.68;;;12.55;;
12290;SDS011;6208;48.956;9.076;2023-02-13T14:15:48;9.40;;;8.50;;
12290;SDS011;6208;48.956;9.076;2023-02-13T14:18:34;8.02;;;7.38;;
12290;SDS011;6208;48.956;9.076;2023-02-13T14:21:21;8.80;;;7.03;;
12290;SDS011;6208;48.956;9.076;2023-02-13T14:24:09;10.27;;;7.82;;
12290;SDS011;6208;48.956;9.076;2023-02-13T14:26:54;7.93;;;7.05;;
12290;SDS011;6208;48.956;9.076;2023-02-13T14:29:40;8.55;;;7.50;;
12290;SDS011;6208;48.956;9.076;2023-02-13T14:32:31;7.80;;;7.10;;
12290;SDS011;6208;48.956;9.076;2023-02-13T14:35:22;9.38;;;6.88;;
12290;SDS011;6208;48.956;9.076;2023-02-13T14:38:19;7.03;;;6.32;;
12290;SDS011;6208;48.956;9.076;2023-02-13T14:41:22;7.65;;;6.30;;
12290;SDS011;6208;48.956;9.076;2023-02-13T14:44:48;6.85;;;6.18;;
12290;SDS011;6208;48.956;9.076;2023-02-13T14:47:36;7.10;;;6.50;;
12290;SDS011;6208;48.956;9.076;2023-02-13T14:50:26;7.47;;;6.78;;
12290;SDS011;6208;48.956;9.076;2023-02-13T14:53:15;7.13;;;6.53;;
12290;SDS011;6208;48.956;9.076;2023-02-13T14:56:10;6.93;;;6.32;;
12290;SDS011;6208;48.956;9.076;2023-02-13T14:59:01;6.90;;;6.28;;
12290;SDS011;6208;48.956;9.076;2023-02-13T15:01:51;7.05;;;6.38;;
12290;SDS011;6208;48.956;9.076;2023-02-13T15:04:45;7.45;;;6.32;;
12290;SDS011;6208;48.956;9.076;2023-02-13T15:07:34;6.10;;;5.50;;
12290;SDS011;6208;48.956;9.076;2023-02-13T15:13:39;6.25;;;5.65;;
12290;SDS011;6208;48.956;9.076;2023-02-13T15:16:23;7.32;;;5.57;;
12290;SDS011;6208;48.956;9.076;2023-02-13T15:19:13;7.30;;;6.43;;
12290;SDS011;6208;48.956;9.076;2023-02-13T15:22:02;9.27;;;8.32;;
12290;SDS011;6208;48.956;9.076;2023-02-13T15:24:48;7.40;;;6.72;;
12290;SDS011;6208;48.956;9.076;2023-02-13T15:27:35;6.80;;;5.95;;
12290;SDS011;6208;48.956;9.076;2023-02-13T15:30:28;7.20;;;6.00;;
12290;SDS011;6208;48.956;9.076;2023-02-13T15:33:21;7.10;;;6.35;;
12290;SDS011;6208;48.956;9.076;2023-02-13T15:36:12;6.35;;;5.75;;
12290;SDS011;6208;48.956;9.076;2023-02-13T15:39:03;6.47;;;5.88;;
12290;SDS011;6208;48.956;9.076;2023-02-13T15:41:52;7.28;;;5.93;;
12290;SDS011;6208;48.956;9.076;2023-02-13T15:44:42;6.70;;;5.93;;
12290;SDS011;6208;48.956;9.076;2023-02-13T15:47:30;6.30;;;5.70;;
12290;SDS011;6208;48.956;9.076;2023-02-13T15:50:27;6.60;;;5.90;;
12290;SDS011;6208;48.956;9.076;2023-02-13T15:53:14;6.07;;;5.57;;
12290;SDS011;6208;48.956;9.076;2023-02-13T15:56:01;6.88;;;6.20;;
12290;SDS011;6208;48.956;9.076;2023-02-13T15:58:48;8.35;;;6.00;;
12290;SDS011;6208;48.956;9.076;2023-02-13T16:01:34;8.73;;;5.43;;
12290;SDS011;6208;48.956;9.076;2023-02-13T16:04:18;6.80;;;5.88;;
12290;SDS011;6208;48.956;9.076;2023-02-13T16:07:05;6.07;;;5.40;;
12290;SDS011;6208;48.956;9.076;2023-02-13T16:10:13;6.22;;;5.70;;
12290;SDS011;6208;48.956;9.076;2023-02-13T16:13:06;6.63;;;6.03;;
12290;SDS011;6208;48.956;9.076;2023-02-13T16:16:01;6.68;;;5.82;;
12290;SDS011;6208;48.956;9.076;2023-02-13T16:18:51;6.60;;;6.00;;
12290;SDS011;6208;48.956;9.076;2023-02-13T16:21:36;9.13;;;5.90;;
12290;SDS011;6208;48.956;9.076;2023-02-13T16:24:23;6.97;;;5.38;;
12290;SDS011;6208;48.956;9.076;2023-02-13T16:27:12;8.60;;;6.47;;
12290;SDS011;6208;48.956;9.076;2023-02-13T16:29:59;6.72;;;6.03;;
12290;SDS011;6208;48.956;9.076;2023-02-13T16:32:45;8.02;;;6.18;;
12290;SDS011;6208;48.956;9.076;2023-02-13T16:35:30;6.60;;;5.80;;
12290;SDS011;6208;48.956;9.076;2023-02-13T16:44:15;7.53;;;6.60;;
12290;SDS011;6208;48.956;9.076;2023-02-13T16:47:21;7.15;;;6.45;;
12290;SDS011;6208;48.956;9.076;2023-02-13T16:50:11;7.30;;;6.53;;
12290;SDS011;6208;48.956;9.076;2023-02-13T16:53:02;7.57;;;6.03;;
12290;SDS011;6208;48.956;9.076;2023-02-13T16:55:55;7.53;;;6.82;;
12290;SDS011;6208;48.956;9.076;2023-02-13T16:58:41;7.65;;;6.93;;
12290;SDS011;6208;48.956;9.076;2023-02-13T17:01:25;9.85;;;7.60;;
12290;SDS011;6208;48.956;9.076;2023-02-13T17:04:14;9.48;;;7.78;;
12290;SDS011;6208;48.956;9.076;2023-02-13T17:07:19;10.25;;;7.82;;
12290;SDS011;6208;48.956;9.076;2023-02-13T17:12:50;7.88;;;6.82;;
12290;SDS011;6208;48.956;9.076;2023-02-13T17:15:36;9.48;;;6.72;;
12290;SDS011;6208;48.956;9.076;2023-02-13T17:18:27;7.97;;;7.13;;
12290;SDS011;6208;48.956;9.076;2023-02-13T17:21:11;8.55;;;7.68;;
12290;SDS011;6208;48.956;9.076;2023-02-13T17:23:56;8.55;;;7.65;;
12290;SDS011;6208;48.956;9.076;2023-02-13T17:26:40;12.45;;;7.30;;
12290;SDS011;6208;48.956;9.076;2023-02-13T17:29:24;8.10;;;6.93;;
12290;SDS011;6208;48.956;9.076;2023-02-13T17:32:13;9.93;;;7.80;;
12290;SDS011;6208;48.956;9.076;2023-02-13T17:35:02;9.30;;;7.75;;
12290;SDS011;6208;48.956;9.076;2023-02-13T17:37:46;10.40;;;8.57;;
12290;SDS011;6208;48.956;9.076;2023-02-13T17:40:30;10.80;;;8.60;;
12290;SDS011;6208;48.956;9.076;2023-02-13T17:43:15;9.13;;;8.23;;
12290;SDS011;6208;48.956;9.076;2023-02-13T17:46:02;11.67;;;8.03;;
12290;SDS011;6208;48.956;9.076;2023-02-13T17:48:46;9.80;;;8.67;;
12290;SDS011;6208;48.956;9.076;2023-02-13T17:51:30;10.97;;;9.43;;
12290;SDS011;6208;48.956;9.076;2023-02-13T17:54:15;11.13;;;8.30;;
12290;SDS011;6208;48.956;9.076;2023-02-13T17:56:59;11.00;;;8.70;;
12290;SDS011;6208;48.956;9.076;2023-02-13T17:59:43;10.20;;;8.47;;
12290;SDS011;6208;48.956;9.076;2023-02-13T18:02:28;9.80;;;8.80;;
12290;SDS011;6208;48.956;9.076;2023-02-13T18:05:13;16.60;;;8.67;;
12290;SDS011;6208;48.956;9.076;2023-02-13T18:07:59;11.43;;;8.10;;
12290;SDS011;6208;48.956;9.076;2023-02-13T18:10:45;10.00;;;8.07;;
12290;SDS011;6208;48.956;9.076;2023-02-13T18:13:30;10.13;;;8.73;;
12290;SDS011;6208;48.956;9.076;2023-02-13T18:16:14;11.27;;;8.83;;
12290;SDS011;6208;48.956;9.076;2023-02-13T18:18:59;10.00;;;8.73;;
12290;SDS011;6208;48.956;9.076;2023-02-13T18:21:43;10.80;;;9.37;;
12290;SDS011;6208;48.956;9.076;2023-02-13T18:24:31;12.17;;;10.00;;
12290;SDS011;6208;48.956;9.076;2023-02-13T18:27:16;9.40;;;8.40;;
12290;SDS011;6208;48.956;9.076;2023-02-13T18:30:00;9.57;;;8.47;;
12290;SDS011;6208;48.956;9.076;2023-02-13T18:32:45;10.50;;;8.83;;
12290;SDS011;6208;48.956;9.076;2023-02-13T18:35:33;13.43;;;8.70;;
12290;SDS011;6208;48.956;9.076;2023-02-13T18:38:20;9.90;;;8.90;;
12290;SDS011;6208;48.956;9.076;2023-02-13T18:41:04;12.70;;;8.97;;
12290;SDS011;6208;48.956;9.076;2023-02-13T18:43:48;11.37;;;9.37;;
12290;SDS011;6208;48.956;9.076;2023-02-13T18:46:32;10.13;;;8.60;;
12290;SDS011;6208;48.956;9.076;2023-02-13T18:49:17;9.17;;;8.10;;
12290;SDS011;6208;48.956;9.076;2023-02-13T18:52:01;10.67;;;8.57;;
12290;SDS011;6208;48.956;9.076;2023-02-13T18:54:46;10.17;;;8.50;;